Hlavní strana
METAR-TAF:

METAR-TAF

Letiště :

Sørkjosen, Norsko

zeměpisná šířka: 69-47N, zeměpisná délka: 020-58E, výška: 0 m

Aktuální stav počasí

Zpráva byla vytvořena před 4 hodinami a 40 minutami, v 19:20 UTC
Západojihozápadní vítr 43 kt s nárazy do 59 kt, proměnlivý mezi jihozápadním a západním
Teplota 10°C
Vlhkost vzduchu 53%
Tlak 1017 hPa
Skoro jasno ve výšce 2500 ft
slabé dešťové přeháňky

METAR: ENSR 191920Z 27027G44KT 240V300 -SHRA FEW025 10/01 Q1017 WIND 1119FT 24043G59KT 220V270

Čas: 01:00 (00:00 UTC)


TAF: chybějící

Stav a předpovědi počasí z více než 4 000 letišť (zprávy METAR a TAF).

Červené a žluté tečky na mapě představují dostupné meteorologické stanice.

Když kurzor umístíte na tečku, zobrazí se název stanice.

Pak kliknutím zobrazíte stav a předpověď počasí.

Chcete-li změnit mapu, kliknutím na zelené tlačítko se znaménkem +mapu přiblížíte, kliknutím na zelené tlačítko se znaménkem – mapu oddálíte a kliknutím na zelené šipky přejdete na sousední mapy.


METAR-TAF: